createdAt,value
2023-04-15T00:00:28.984Z,8.60
2023-04-15T00:03:34.650Z,7.28
2023-04-15T00:06:39.789Z,7.07
2023-04-15T00:09:44.727Z,6.50
2023-04-15T00:12:48.188Z,7.68
2023-04-15T00:15:51.367Z,7.30
2023-04-15T00:18:55.146Z,7.97
2023-04-15T00:21:59.907Z,6.40
2023-04-15T00:25:08.264Z,8.70
2023-04-15T00:28:11.740Z,7.43
2023-04-15T00:31:15.652Z,7.47
2023-04-15T00:34:19.467Z,6.65
2023-04-15T00:37:23.099Z,7.18
2023-04-15T00:40:28.125Z,7.85
2023-04-15T00:43:31.421Z,6.60
2023-04-15T00:46:38.386Z,7.03
2023-04-15T00:49:41.606Z,6.32
2023-04-15T00:52:44.739Z,5.50
2023-04-15T00:55:47.841Z,7.85
2023-04-15T00:58:52.613Z,6.87
2023-04-15T01:01:56.584Z,8.02
2023-04-15T01:04:59.905Z,6.13
2023-04-15T01:08:03.813Z,6.03
2023-04-15T01:11:07.834Z,6.28
2023-04-15T01:14:11.368Z,7.17
2023-04-15T01:17:14.860Z,6.13
2023-04-15T01:20:18.240Z,6.65
2023-04-15T01:23:23.252Z,9.15
2023-04-15T01:26:27.461Z,5.57
2023-04-15T01:29:32.741Z,8.37
2023-04-15T01:32:36.392Z,5.88
2023-04-15T01:35:39.844Z,7.93
2023-04-15T01:38:43.055Z,7.00
2023-04-15T01:41:46.272Z,6.22
2023-04-15T01:44:49.599Z,6.33
2023-04-15T01:47:53.005Z,6.95
2023-04-15T01:50:58.160Z,6.65
2023-04-15T01:54:01.578Z,7.22
2023-04-15T01:57:06.396Z,6.28
2023-04-15T02:00:10.070Z,6.47
2023-04-15T02:03:19.630Z,5.32
2023-04-15T02:06:22.937Z,6.35
2023-04-15T02:09:26.285Z,6.90
2023-04-15T02:12:29.631Z,6.80
2023-04-15T02:15:33.432Z,8.30
2023-04-15T02:18:37.292Z,7.40
2023-04-15T02:21:40.780Z,7.72
2023-04-15T02:24:46.426Z,7.47
2023-04-15T02:27:49.728Z,7.20
2023-04-15T02:30:54.777Z,8.05
2023-04-15T02:34:00.231Z,8.40
2023-04-15T02:37:04.013Z,7.70
2023-04-15T02:40:10.514Z,7.70
2023-04-15T02:43:13.878Z,7.67
2023-04-15T02:46:17.543Z,7.00
2023-04-15T02:49:21.190Z,7.63
2023-04-15T02:52:24.765Z,9.25
2023-04-15T02:55:28.402Z,7.47
2023-04-15T02:58:31.817Z,7.97
2023-04-15T03:01:35.056Z,7.53
2023-04-15T03:04:38.349Z,7.88
2023-04-15T03:07:41.649Z,7.57
2023-04-15T03:10:44.891Z,8.67
2023-04-15T03:13:48.186Z,7.93
2023-04-15T03:17:01.801Z,7.53
2023-04-15T03:20:06.554Z,6.97
2023-04-15T03:23:11.215Z,8.93
2023-04-15T03:26:28.718Z,6.90
2023-04-15T03:29:36.390Z,9.27
2023-04-15T03:32:40.215Z,6.78
2023-04-15T03:35:44.098Z,7.35
2023-04-15T03:38:47.418Z,9.17
2023-04-15T03:41:50.764Z,9.20
2023-04-15T03:44:53.964Z,8.50
2023-04-15T03:48:03.598Z,7.85
2023-04-15T03:51:14.521Z,9.50
2023-04-15T03:54:17.782Z,10.55
2023-04-15T03:57:21.154Z,9.45
2023-04-15T04:00:24.652Z,8.45
2023-04-15T04:03:28.125Z,9.25
2023-04-15T04:06:31.641Z,7.50
2023-04-15T04:09:35.080Z,7.90
2023-04-15T04:12:38.234Z,7.00
2023-04-15T04:15:41.489Z,7.75
2023-04-15T04:18:44.785Z,10.73
2023-04-15T04:21:48.222Z,8.32
2023-04-15T04:24:51.475Z,8.55
2023-04-15T04:27:54.734Z,8.75
2023-04-15T04:30:57.932Z,8.03
2023-04-15T04:34:01.186Z,7.85
2023-04-15T04:37:04.369Z,8.50
2023-04-15T04:40:08.254Z,9.57
2023-04-15T04:43:11.507Z,11.03
2023-04-15T04:46:14.794Z,7.72
2023-04-15T04:49:17.981Z,7.40
2023-04-15T04:52:21.421Z,10.35
2023-04-15T04:55:24.632Z,7.68
2023-04-15T04:58:27.882Z,7.60
2023-04-15T05:01:31.439Z,10.18
2023-04-15T05:04:34.734Z,9.23
2023-04-15T05:07:39.523Z,9.05
2023-04-15T05:10:43.057Z,8.75
2023-04-15T05:13:46.401Z,10.40
2023-04-15T05:16:49.621Z,9.93
2023-04-15T05:19:53.833Z,8.35
2023-04-15T05:22:57.045Z,9.07
2023-04-15T05:26:00.295Z,8.48
2023-04-15T05:29:03.725Z,7.97
2023-04-15T05:32:07.919Z,7.80
2023-04-15T05:35:11.189Z,8.00
2023-04-15T05:38:14.540Z,7.45
2023-04-15T05:41:19.772Z,6.22
2023-04-15T05:44:23.287Z,8.83
2023-04-15T05:47:26.541Z,7.78
2023-04-15T05:50:29.850Z,9.80
2023-04-15T05:53:33.220Z,7.88
2023-04-15T05:56:36.993Z,8.65
2023-04-15T05:59:42.404Z,7.87
2023-04-15T06:02:45.780Z,8.38
2023-04-15T06:05:49.357Z,7.63
2023-04-15T06:08:52.823Z,6.60
2023-04-15T06:11:57.048Z,7.22
2023-04-15T06:15:00.920Z,10.73
2023-04-15T06:18:04.166Z,8.18
2023-04-15T06:21:07.415Z,7.03
2023-04-15T06:24:11.400Z,8.48
2023-04-15T06:27:14.574Z,6.95
2023-04-15T06:30:17.771Z,9.57
2023-04-15T06:33:21.169Z,8.77
2023-04-15T06:36:24.411Z,10.25
2023-04-15T06:39:27.762Z,7.45
2023-04-15T06:42:31.151Z,8.73
2023-04-15T06:45:34.414Z,9.60
2023-04-15T06:48:38.178Z,7.57
2023-04-15T06:51:42.610Z,6.85
2023-04-15T06:54:46.050Z,7.88
2023-04-15T06:57:49.296Z,7.10
2023-04-15T07:00:53.694Z,8.60
2023-04-15T07:03:57.172Z,7.95
2023-04-15T07:07:00.840Z,6.78
2023-04-15T07:10:04.678Z,9.25
2023-04-15T07:13:09.710Z,8.25
2023-04-15T07:16:13.257Z,10.37
2023-04-15T07:19:16.660Z,8.40
2023-04-15T07:22:20.643Z,8.18
2023-04-15T07:25:24.079Z,8.00
2023-04-15T07:28:27.751Z,7.57
2023-04-15T07:31:31.372Z,7.17
2023-04-15T07:34:34.601Z,6.60
2023-04-15T07:37:37.897Z,6.90
2023-04-15T07:40:42.430Z,7.78
2023-04-15T07:43:46.100Z,8.77
2023-04-15T07:46:49.537Z,4.23
2023-04-15T07:49:53.356Z,5.72
2023-04-15T07:52:57.948Z,6.43
2023-04-15T07:56:01.380Z,4.03
2023-04-15T07:59:06.173Z,6.60
2023-04-15T08:02:10.032Z,5.07
2023-04-15T08:05:14.974Z,5.45
2023-04-15T08:08:18.314Z,4.72
2023-04-15T08:11:23.134Z,7.00
2023-04-15T08:14:26.506Z,6.00
2023-04-15T08:17:29.736Z,7.37
2023-04-15T08:20:33.247Z,5.40
2023-04-15T08:23:36.708Z,4.75
2023-04-15T08:26:40.009Z,5.80
2023-04-15T08:29:43.514Z,5.53
2023-04-15T08:32:47.556Z,4.83
2023-04-15T08:35:51.296Z,4.70
2023-04-15T08:38:54.748Z,2.80
2023-04-15T08:42:11.003Z,2.85
2023-04-15T08:45:14.658Z,3.38
2023-04-15T08:48:18.546Z,3.00
2023-04-15T08:51:23.908Z,3.28
2023-04-15T08:54:28.713Z,3.80
2023-04-15T08:57:33.552Z,2.00
2023-04-15T09:00:37.716Z,3.63
2023-04-15T09:03:41.960Z,2.90
2023-04-15T09:06:45.386Z,3.58
2023-04-15T09:09:49.536Z,3.50
2023-04-15T09:12:53.139Z,2.75
2023-04-15T09:15:58.560Z,2.85
2023-04-15T09:19:20.246Z,3.67
2023-04-15T09:22:23.519Z,2.55
2023-04-15T09:25:28.493Z,2.85
2023-04-15T09:28:32.058Z,2.63
2023-04-15T09:31:39.114Z,3.03
2023-04-15T09:34:42.800Z,3.00
2023-04-15T09:37:46.196Z,3.03
2023-04-15T09:40:49.511Z,2.95
2023-04-15T09:43:53.294Z,5.95
2023-04-15T09:46:56.495Z,5.00
2023-04-15T09:50:01.078Z,2.47
2023-04-15T09:53:04.846Z,3.10
2023-04-15T09:56:10.547Z,2.75
2023-04-15T09:59:14.541Z,2.58
2023-04-15T10:02:25.331Z,2.72
2023-04-15T10:05:29.862Z,3.57
2023-04-15T10:08:35.090Z,2.38
2023-04-15T10:11:38.576Z,2.50
2023-04-15T10:14:44.411Z,2.92
2023-04-15T10:17:50.643Z,2.40
2023-04-15T10:20:55.093Z,5.60
2023-04-15T10:24:01.924Z,2.92
2023-04-15T10:27:05.841Z,3.83
2023-04-15T10:30:11.625Z,1.60
2023-04-15T10:33:17.191Z,3.45
2023-04-15T10:36:20.946Z,1.90
2023-04-15T10:39:42.108Z,2.63
2023-04-15T10:42:45.537Z,2.80
2023-04-15T10:45:48.995Z,3.20
2023-04-15T10:48:55.172Z,2.83
2023-04-15T10:51:59.770Z,4.47
2023-04-15T10:55:16.024Z,2.70
2023-04-15T10:58:23.194Z,3.30
2023-04-15T11:01:57.673Z,3.88
2023-04-15T11:05:01.847Z,3.08
2023-04-15T11:08:10.767Z,3.43
2023-04-15T11:11:14.429Z,2.88
2023-04-15T11:14:17.913Z,2.55
2023-04-15T11:17:30.886Z,2.75
2023-04-15T11:20:34.876Z,2.35
2023-04-15T11:23:46.856Z,2.27
2023-04-15T11:26:50.199Z,2.90
2023-04-15T11:29:55.127Z,3.15
2023-04-15T11:33:09.729Z,2.30
2023-04-15T11:36:13.882Z,2.17
2023-04-15T11:39:17.042Z,2.03
2023-04-15T11:42:20.206Z,2.75
2023-04-15T11:45:23.419Z,2.67
2023-04-15T11:48:32.636Z,2.58
2023-04-15T11:51:36.262Z,2.60
2023-04-15T11:54:39.865Z,2.53
2023-04-15T11:57:43.198Z,2.03
2023-04-15T12:00:54.989Z,2.85
2023-04-15T12:04:00.033Z,2.28
2023-04-15T12:07:07.540Z,2.00
2023-04-15T12:10:10.919Z,3.10
2023-04-15T12:13:14.783Z,2.45
2023-04-15T12:16:19.691Z,2.22
2023-04-15T12:19:25.172Z,3.00
2023-04-15T12:22:28.460Z,2.30
2023-04-15T12:25:37.680Z,3.10
2023-04-15T12:28:42.427Z,1.33
2023-04-15T12:31:53.353Z,1.83
2023-04-15T12:34:56.554Z,2.60
2023-04-15T12:37:59.672Z,2.65
2023-04-15T12:41:03.060Z,2.17
2023-04-15T12:44:06.726Z,2.05
2023-04-15T12:47:11.476Z,2.00
2023-04-15T12:50:14.833Z,2.53
2023-04-15T12:53:18.219Z,1.77
2023-04-15T12:56:21.430Z,2.50
2023-04-15T12:59:25.248Z,3.63
2023-04-15T13:02:29.438Z,3.10
2023-04-15T13:05:33.175Z,2.58
2023-04-15T13:08:38.478Z,2.58
2023-04-15T13:11:43.912Z,3.50
2023-04-15T13:14:47.195Z,2.47
2023-04-15T13:17:51.112Z,1.75
2023-04-15T13:20:56.469Z,2.60
2023-04-15T13:24:00.570Z,2.78
2023-04-15T13:27:04.477Z,2.07
2023-04-15T13:30:08.533Z,1.70
2023-04-15T13:33:12.808Z,2.58
2023-04-15T13:36:16.249Z,2.25
2023-04-15T13:39:19.421Z,2.45
2023-04-15T13:42:23.579Z,3.27
2023-04-15T13:45:27.309Z,2.67
2023-04-15T13:48:30.672Z,2.00
2023-04-15T13:51:36.400Z,2.35
2023-04-15T13:54:39.861Z,1.88
2023-04-15T13:57:43.036Z,2.53
2023-04-15T14:00:46.442Z,2.58
2023-04-15T14:03:49.949Z,2.17
2023-04-15T14:06:53.346Z,2.45
2023-04-15T14:09:56.914Z,3.17
2023-04-15T14:13:00.385Z,2.50
2023-04-15T14:16:04.032Z,2.45
2023-04-15T14:19:07.443Z,2.85
2023-04-15T14:22:10.767Z,3.90
2023-04-15T14:25:23.185Z,2.17
2023-04-15T14:28:33.892Z,4.30
2023-04-15T14:31:37.661Z,2.88
2023-04-15T14:34:42.700Z,4.10
2023-04-15T14:37:45.887Z,3.22
2023-04-15T14:40:49.358Z,3.50
2023-04-15T14:43:52.843Z,4.17
2023-04-15T14:46:56.647Z,2.80
2023-04-15T14:49:59.954Z,2.75
2023-04-15T14:53:03.246Z,3.47
2023-04-15T14:56:06.797Z,5.55
2023-04-15T14:59:10.150Z,3.57
2023-04-15T15:02:17.364Z,4.35
2023-04-15T15:05:29.771Z,4.45
2023-04-15T15:08:33.149Z,13.85
2023-04-15T15:11:36.381Z,3.45
2023-04-15T15:14:40.111Z,6.67
2023-04-15T15:17:43.441Z,4.57
2023-04-15T15:20:47.161Z,5.80
2023-04-15T15:23:50.623Z,3.63
2023-04-15T15:26:53.988Z,3.25
2023-04-15T15:29:57.396Z,2.77
2023-04-15T15:33:00.778Z,5.78
2023-04-15T15:36:11.375Z,2.85
2023-04-15T15:39:14.572Z,3.50
2023-04-15T15:42:19.787Z,6.80
2023-04-15T15:45:23.134Z,4.77
2023-04-15T15:48:26.378Z,8.93
2023-04-15T15:51:29.604Z,6.57
2023-04-15T15:54:32.903Z,6.45
2023-04-15T15:57:37.183Z,4.63
2023-04-15T16:00:40.577Z,5.70
2023-04-15T16:03:44.077Z,5.40
2023-04-15T16:06:48.589Z,4.80
2023-04-15T16:09:52.859Z,5.00
2023-04-15T16:12:56.336Z,4.75
2023-04-15T16:15:59.567Z,4.50
2023-04-15T16:19:03.046Z,4.18
2023-04-15T16:22:07.259Z,4.10
2023-04-15T16:25:10.774Z,10.38
2023-04-15T16:28:25.777Z,9.80
2023-04-15T16:31:30.545Z,5.03
2023-04-15T16:34:35.408Z,6.63
2023-04-15T16:37:38.694Z,3.88
2023-04-15T16:40:42.205Z,7.55
2023-04-15T16:43:46.069Z,5.43
2023-04-15T16:46:49.364Z,4.13
2023-04-15T16:49:52.976Z,5.03
2023-04-15T16:52:56.383Z,4.63
2023-04-15T16:55:59.790Z,4.55
2023-04-15T16:59:03.512Z,4.53
2023-04-15T17:02:10.485Z,5.90
2023-04-15T17:05:14.076Z,5.55
2023-04-15T17:08:17.192Z,4.28
2023-04-15T17:11:20.763Z,5.07
2023-04-15T17:14:24.312Z,5.93
2023-04-15T17:17:27.624Z,7.10
2023-04-15T17:20:31.260Z,6.80
2023-04-15T17:23:34.693Z,6.22
2023-04-15T17:26:38.001Z,4.70
2023-04-15T17:29:41.273Z,5.65
2023-04-15T17:32:44.601Z,4.87
2023-04-15T17:35:51.747Z,6.55
2023-04-15T17:38:57.824Z,9.55
2023-04-15T17:42:01.199Z,12.30
2023-04-15T17:45:04.909Z,9.55
2023-04-15T17:48:08.156Z,7.37
2023-04-15T17:51:12.836Z,8.32
2023-04-15T17:54:17.453Z,8.05
2023-04-15T17:57:20.867Z,11.18
2023-04-15T18:00:24.471Z,9.63
2023-04-15T18:03:28.878Z,9.80
2023-04-15T18:06:32.465Z,9.40
2023-04-15T18:09:36.716Z,12.30
2023-04-15T18:12:39.938Z,10.23
2023-04-15T18:15:45.061Z,8.30
2023-04-15T18:18:49.708Z,8.13
2023-04-15T18:21:53.327Z,10.32
2023-04-15T18:24:59.036Z,6.90
2023-04-15T18:28:02.468Z,8.25
2023-04-15T18:31:06.413Z,9.85
2023-04-15T18:34:10.208Z,11.67
2023-04-15T18:37:13.634Z,10.38
2023-04-15T18:40:17.219Z,14.02
2023-04-15T18:43:21.196Z,9.27
2023-04-15T18:46:24.797Z,10.35
2023-04-15T18:49:28.412Z,11.07
2023-04-15T18:52:31.987Z,11.15
2023-04-15T18:55:36.289Z,10.43
2023-04-15T18:59:25.863Z,7.43
2023-04-15T19:02:06.496Z,9.98
2023-04-15T19:05:11.003Z,9.23
2023-04-15T19:08:14.670Z,10.00
2023-04-15T19:11:18.164Z,7.25
2023-04-15T19:14:21.775Z,8.07
2023-04-15T19:17:25.174Z,8.63
2023-04-15T19:20:28.641Z,8.00
2023-04-15T19:23:32.403Z,7.68
2023-04-15T19:26:36.977Z,5.57
2023-04-15T19:29:40.965Z,5.78
2023-04-15T19:32:45.931Z,7.55
2023-04-15T19:35:52.735Z,6.10
2023-04-15T19:38:56.152Z,6.55
2023-04-15T19:41:59.689Z,5.30
2023-04-15T19:45:03.859Z,5.60
2023-04-15T19:48:07.675Z,5.80
2023-04-15T19:51:11.559Z,5.03
2023-04-15T19:54:16.454Z,5.85
2023-04-15T19:57:19.833Z,6.80
2023-04-15T20:00:23.357Z,6.03
2023-04-15T20:03:28.046Z,5.57
2023-04-15T20:06:31.733Z,5.47
2023-04-15T20:09:35.389Z,4.40
2023-04-15T20:12:50.161Z,5.53
2023-04-15T20:15:56.104Z,7.03
2023-04-15T20:19:04.178Z,6.90
2023-04-15T20:22:09.204Z,6.83
2023-04-15T20:25:12.989Z,8.73
2023-04-15T20:28:18.892Z,7.30
2023-04-15T20:31:22.985Z,7.15
2023-04-15T20:34:26.465Z,6.50
2023-04-15T20:37:33.121Z,7.13
2023-04-15T20:40:36.882Z,6.53
2023-04-15T20:43:40.543Z,6.70
2023-04-15T20:46:43.811Z,8.77
2023-04-15T20:49:47.517Z,7.13
2023-04-15T20:52:51.200Z,7.50
2023-04-15T20:55:54.649Z,8.20
2023-04-15T20:58:58.010Z,7.40
2023-04-15T21:02:01.736Z,9.43
2023-04-15T21:05:05.380Z,10.07
2023-04-15T21:08:08.643Z,8.00
2023-04-15T21:11:11.796Z,8.43
2023-04-15T21:14:16.047Z,10.05
2023-04-15T21:17:19.307Z,7.18
2023-04-15T21:20:22.696Z,6.38
2023-04-15T21:23:28.604Z,8.03
2023-04-15T21:26:31.798Z,5.57
2023-04-15T21:29:35.106Z,4.75
2023-04-15T21:32:38.454Z,6.28
2023-04-15T21:35:41.724Z,4.78
2023-04-15T21:38:44.930Z,8.77
2023-04-15T21:41:48.252Z,5.78
2023-04-15T21:44:51.433Z,6.47
2023-04-15T21:48:05.455Z,6.47
2023-04-15T21:51:16.738Z,6.18
2023-04-15T21:54:20.134Z,6.87
2023-04-15T21:57:23.253Z,6.88
2023-04-15T22:00:26.562Z,7.32
2023-04-15T22:03:33.486Z,4.90
2023-04-15T22:06:37.100Z,5.60
2023-04-15T22:09:40.546Z,4.20
2023-04-15T22:12:43.955Z,5.72
2023-04-15T22:15:47.153Z,4.57
2023-04-15T22:18:50.643Z,5.40
2023-04-15T22:21:54.025Z,4.32
2023-04-15T22:24:57.278Z,5.60
2023-04-15T22:28:00.708Z,4.85
2023-04-15T22:31:04.129Z,4.97
2023-04-15T22:34:07.446Z,4.50
2023-04-15T22:37:11.632Z,5.00
2023-04-15T22:40:15.071Z,5.63
2023-04-15T22:43:18.344Z,5.93
2023-04-15T22:46:21.592Z,4.95
2023-04-15T22:49:26.182Z,7.00
2023-04-15T22:52:30.922Z,4.88
2023-04-15T22:55:34.635Z,5.47
2023-04-15T22:58:37.913Z,5.65
2023-04-15T23:01:41.253Z,6.57
2023-04-15T23:04:45.447Z,6.60
2023-04-15T23:07:48.782Z,7.88
2023-04-15T23:10:52.096Z,7.83
2023-04-15T23:13:55.461Z,7.18
2023-04-15T23:16:59.239Z,7.63
2023-04-15T23:20:03.089Z,7.10
2023-04-15T23:23:06.451Z,9.05
2023-04-15T23:26:10.287Z,7.57
2023-04-15T23:29:13.491Z,7.80
2023-04-15T23:32:16.715Z,8.45
2023-04-15T23:35:19.983Z,7.65
2023-04-15T23:38:23.118Z,8.10
2023-04-15T23:41:26.354Z,7.13
2023-04-15T23:44:29.829Z,7.13
2023-04-15T23:47:33.209Z,6.57
2023-04-15T23:50:36.530Z,6.28
2023-04-15T23:53:39.892Z,9.30
2023-04-15T23:56:43.157Z,6.88
2023-04-15T23:59:46.981Z,8.02
